Time;durP1;ratioP1;P1;durP2;ratioP2;P2;SDS_P1;SDS_P2;PMS_P1;PMS_P2;Temp;Humidity;BMP_temperature;BMP_pressure;BME280_temperature;BME280_humidity;BME280_pressure;Samples;Min_cycle;Max_cycle;Signal;HPM_P1;HPM_P2
2024/01/12 00:00:00;;;;;;;2.80;1.75;;;18.50;69.10;;;;;;5013703;28;20018;-66
2024/01/12 00:02:26;;;;;;;6.55;2.90;;;18.40;69.20;;;;;;5014157;28;20077;-67
2024/01/12 00:04:51;;;;;;;2.70;1.85;;;18.40;69.20;;;;;;5013960;28;20054;-67
2024/01/12 00:07:17;;;;;;;1.83;1.38;;;18.40;69.20;;;;;;5014118;28;20026;-67
2024/01/12 00:09:46;;;;;;;2.15;1.75;;;18.40;69.30;;;;;;5014210;28;20030;-66
2024/01/12 00:12:11;;;;;;;4.03;1.83;;;18.40;69.40;;;;;;5014253;28;20076;-68
2024/01/12 00:14:37;;;;;;;3.05;1.98;;;18.30;69.50;;;;;;5014798;28;20026;-68
2024/01/12 00:17:03;;;;;;;2.75;2.03;;;18.30;69.50;;;;;;5014164;28;20022;-67
2024/01/12 00:19:28;;;;;;;3.08;2.00;;;18.30;69.60;;;;;;5013860;28;20073;-67
2024/01/12 00:21:54;;;;;;;3.25;1.75;;;18.30;69.60;;;;;;5013627;28;20058;-67
2024/01/12 00:24:20;;;;;;;3.53;2.33;;;18.30;69.70;;;;;;5013693;28;20059;-68
2024/01/12 00:26:46;;;;;;;2.17;1.95;;;18.30;69.80;;;;;;5013461;28;20435;-69
2024/01/12 00:29:11;;;;;;;1.75;1.50;;;18.20;69.80;;;;;;5013685;28;20022;-69
2024/01/12 00:31:37;;;;;;;3.72;1.98;;;18.30;69.90;;;;;;5013329;28;20386;-69
2024/01/12 00:34:03;;;;;;;2.72;1.50;;;18.20;70.00;;;;;;5013553;28;20036;-69
2024/01/12 00:36:28;;;;;;;2.60;1.80;;;18.20;69.90;;;;;;5013383;28;20017;-69
2024/01/12 00:38:54;;;;;;;1.40;1.23;;;18.20;70.00;;;;;;5013302;28;20026;-69
2024/01/12 00:41:19;;;;;;;3.35;1.65;;;18.30;69.90;;;;;;5013068;28;20370;-69
2024/01/12 00:43:45;;;;;;;2.38;1.83;;;18.30;69.90;;;;;;5013229;28;20057;-69
2024/01/12 00:46:11;;;;;;;2.38;1.88;;;18.30;69.80;;;;;;5013265;28;20041;-69
2024/01/12 00:48:36;;;;;;;3.88;1.92;;;18.30;69.70;;;;;;5013151;28;20063;-69
2024/01/12 00:51:02;;;;;;;2.15;1.83;;;18.40;69.70;;;;;;5012356;28;20045;-68
2024/01/12 00:53:27;;;;;;;2.25;1.67;;;18.40;69.80;;;;;;5013212;28;20112;-68
2024/01/12 00:55:53;;;;;;;2.20;1.80;;;18.40;69.90;;;;;;5012003;28;20041;-69
2024/01/12 00:58:19;;;;;;;3.08;2.00;;;18.40;70.00;;;;;;5013266;28;20683;-68
2024/01/12 01:00:44;;;;;;;2.03;1.48;;;18.40;70.10;;;;;;5012823;28;20026;-68
2024/01/12 01:03:10;;;;;;;1.85;1.42;;;18.40;70.20;;;;;;5012961;28;20060;-69
2024/01/12 01:05:36;;;;;;;3.22;1.48;;;18.50;70.20;;;;;;5012934;28;20275;-68
2024/01/12 01:08:01;;;;;;;1.80;1.50;;;18.40;70.30;;;;;;5013001;28;20109;-68
2024/01/12 01:10:27;;;;;;;1.80;1.45;;;18.50;70.20;;;;;;5012637;28;20030;-68
2024/01/12 01:12:53;;;;;;;2.67;1.50;;;18.50;70.20;;;;;;5012858;28;20030;-68
2024/01/12 01:15:19;;;;;;;1.48;1.38;;;18.50;70.20;;;;;;5012995;28;20022;-68
2024/01/12 01:17:45;;;;;;;5.38;1.60;;;18.50;70.10;;;;;;5012949;28;20416;-70
2024/01/12 01:20:11;;;;;;;5.93;1.63;;;18.50;70.30;;;;;;5018908;28;20026;-71
2024/01/12 01:22:37;;;;;;;10.77;1.75;;;18.50;70.30;;;;;;5022183;28;20032;-68
2024/01/12 01:25:03;;;;;;;4.45;1.80;;;18.50;70.10;;;;;;5022865;28;20436;-68
2024/01/12 01:27:29;;;;;;;4.13;1.50;;;18.60;69.80;;;;;;5021214;28;20026;-68
2024/01/12 01:29:54;;;;;;;8.00;2.00;;;18.60;69.60;;;;;;5022256;28;20034;-68
2024/01/12 01:32:20;;;;;;;2.25;1.80;;;18.60;69.50;;;;;;5021980;28;20030;-69
2024/01/12 01:34:45;;;;;;;2.65;1.63;;;18.70;69.50;;;;;;5019579;28;20022;-68
2024/01/12 01:37:11;;;;;;;2.75;1.70;;;18.60;69.40;;;;;;5013046;28;20026;-68
2024/01/12 01:39:37;;;;;;;2.92;1.70;;;18.70;69.50;;;;;;5013029;28;20022;-71
2024/01/12 01:42:02;;;;;;;4.20;1.27;;;18.60;69.50;;;;;;5011401;28;20087;-68
2024/01/12 01:44:28;;;;;;;3.15;1.48;;;18.60;69.80;;;;;;5012660;28;20037;-70
2024/01/12 01:46:55;;;;;;;2.13;1.58;;;18.70;69.50;;;;;;5012850;28;20026;-70
2024/01/12 01:49:22;;;;;;;4.10;1.40;;;18.60;69.40;;;;;;5011963;28;20030;-70
2024/01/12 01:51:48;;;;;;;2.38;1.40;;;18.60;69.40;;;;;;5011599;28;20136;-68
2024/01/12 01:54:14;;;;;;;20.65;7.53;;;18.60;69.50;;;;;;5012071;28;20054;-67
2024/01/12 01:56:41;;;;;;;15.18;7.55;;;18.50;63.10;;;;;;5011944;28;20042;-67
2024/01/12 01:59:07;;;;;;;10.85;7.13;;;17.60;54.10;;;;;;5011492;28;20072;-66
2024/01/12 02:01:33;;;;;;;9.27;7.22;;;16.90;55.50;;;;;;5011237;28;20030;-65
2024/01/12 02:04:01;;;;;;;9.07;5.50;;;16.40;52.70;;;;;;5011682;28;20026;-67
2024/01/12 02:06:26;;;;;;;9.10;5.03;;;16.30;67.90;;;;;;5011055;28;20030;-67
2024/01/12 02:08:52;;;;;;;16.58;4.95;;;16.60;70.60;;;;;;5012436;28;20080;-67
2024/01/12 02:11:18;;;;;;;8.15;4.70;;;16.90;70.40;;;;;;5011245;28;20026;-68
2024/01/12 02:13:44;;;;;;;11.30;5.30;;;17.10;69.40;;;;;;5011344;28;20029;-68
2024/01/12 02:16:10;;;;;;;10.77;4.15;;;17.20;68.90;;;;;;5011375;28;20049;-69
2024/01/12 02:18:35;;;;;;;8.80;3.97;;;17.40;68.70;;;;;;5011095;28;20033;-69
2024/01/12 02:21:01;;;;;;;8.48;3.83;;;17.50;68.60;;;;;;5010755;28;20026;-68
2024/01/12 02:23:26;;;;;;;8.82;3.47;;;17.50;68.60;;;;;;5011228;28;20044;-69
2024/01/12 02:25:52;;;;;;;4.03;3.15;;;17.60;68.50;;;;;;5011117;28;20029;-70
2024/01/12 02:28:18;;;;;;;9.05;3.58;;;17.70;68.50;;;;;;5010805;28;20026;-68
2024/01/12 02:30:44;;;;;;;8.60;3.40;;;17.60;68.70;;;;;;5010713;28;20030;-68
2024/01/12 02:33:10;;;;;;;6.65;3.08;;;17.70;68.90;;;;;;5011309;28;20398;-68
2024/01/12 02:35:35;;;;;;;4.85;2.78;;;17.70;69.00;;;;;;5011020;28;20037;-69
2024/01/12 02:38:01;;;;;;;5.18;2.80;;;17.70;69.10;;;;;;5009701;28;20113;-69
2024/01/12 02:40:27;;;;;;;10.30;2.80;;;17.70;69.30;;;;;;5010596;28;20030;-69
2024/01/12 02:42:53;;;;;;;6.65;2.60;;;17.70;69.30;;;;;;5010987;28;20041;-69
2024/01/12 02:45:19;;;;;;;4.72;2.20;;;17.70;69.40;;;;;;5010835;28;20030;-68
2024/01/12 02:47:44;;;;;;;4.45;2.25;;;17.70;69.40;;;;;;5010900;28;20026;-67
2024/01/12 02:50:10;;;;;;;6.50;2.10;;;17.70;69.50;;;;;;5010552;28;20026;-67
2024/01/12 02:52:36;;;;;;;7.70;2.13;;;17.70;69.60;;;;;;5011296;28;20034;-67
2024/01/12 02:55:10;;;;;;;6.65;2.47;;;17.70;69.70;;;;;;5010870;28;20052;-67
2024/01/12 02:57:36;;;;;;;3.83;2.00;;;17.70;69.80;;;;;;5010818;28;20108;-67
2024/01/12 03:00:02;;;;;;;3.92;1.77;;;17.70;70.00;;;;;;5010437;28;20101;-67
2024/01/12 03:02:27;;;;;;;2.28;1.52;;;17.70;70.10;;;;;;5010591;28;20037;-67
2024/01/12 03:04:53;;;;;;;6.10;1.70;;;17.70;70.10;;;;;;5010643;28;20034;-67
2024/01/12 03:07:18;;;;;;;2.83;1.65;;;17.70;70.10;;;;;;5010875;28;20125;-68
2024/01/12 03:09:44;;;;;;;4.88;1.73;;;17.70;70.20;;;;;;5010339;28;20038;-68
2024/01/12 03:12:10;;;;;;;4.30;1.50;;;17.70;70.30;;;;;;5010523;28;20026;-68
2024/01/12 03:14:35;;;;;;;4.20;1.70;;;17.70;70.30;;;;;;5009173;28;20033;-67
2024/01/12 03:17:01;;;;;;;2.22;1.23;;;17.70;70.40;;;;;;5010710;28;20033;-68
2024/01/12 03:19:27;;;;;;;1.80;1.33;;;17.70;70.50;;;;;;5009827;28;20530;-68
2024/01/12 03:21:52;;;;;;;2.17;1.10;;;17.70;70.50;;;;;;5010304;28;20037;-68
2024/01/12 03:24:18;;;;;;;2.42;1.30;;;17.70;70.50;;;;;;5010643;28;20125;-68
2024/01/12 03:26:43;;;;;;;1.35;1.10;;;17.70;70.60;;;;;;5008717;28;20122;-68
2024/01/12 03:29:09;;;;;;;7.30;1.35;;;17.70;70.60;;;;;;5010280;28;20030;-68
2024/01/12 03:31:35;;;;;;;1.65;1.00;;;17.70;70.60;;;;;;5010177;28;20022;-65
2024/01/12 03:34:02;;;;;;;1.88;1.10;;;17.70;70.60;;;;;;5010320;28;20034;-66
2024/01/12 03:36:28;;;;;;;2.30;1.08;;;17.70;70.70;;;;;;5010271;28;20402;-67
2024/01/12 03:38:54;;;;;;;2.25;1.25;;;17.70;70.70;;;;;;4992604;28;20127;-67
2024/01/12 03:41:20;;;;;;;2.03;1.17;;;17.70;70.70;;;;;;5010129;28;20030;-66
2024/01/12 03:43:46;;;;;;;2.17;1.10;;;17.60;70.70;;;;;;5010480;28;20080;-66
2024/01/12 03:46:12;;;;;;;1.88;0.88;;;17.60;70.70;;;;;;5010299;28;20033;-67
2024/01/12 03:48:39;;;;;;;5.40;1.33;;;17.70;70.70;;;;;;5010246;28;20363;-68
2024/01/12 03:51:05;;;;;;;1.33;0.98;;;17.60;70.80;;;;;;5010019;28;20376;-68
2024/01/12 03:53:30;;;;;;;3.80;1.25;;;17.60;71.00;;;;;;5010520;28;20018;-68
2024/01/12 03:55:56;;;;;;;1.73;1.08;;;17.70;70.90;;;;;;5010666;28;20029;-67
2024/01/12 03:58:22;;;;;;;1.88;0.98;;;17.70;70.90;;;;;;5010394;28;20029;-68
2024/01/12 04:00:47;;;;;;;2.58;1.30;;;17.60;70.90;;;;;;5010141;28;20033;-68
2024/01/12 04:03:13;;;;;;;1.33;0.82;;;17.60;71.20;;;;;;5012328;28;20415;-69
2024/01/12 04:05:39;;;;;;;4.38;0.85;;;17.60;71.10;;;;;;5011062;28;20101;-69
2024/01/12 04:08:05;;;;;;;4.35;1.38;;;17.60;71.30;;;;;;5010337;28;20189;-69
2024/01/12 04:10:31;;;;;;;5.18;1.17;;;17.70;71.20;;;;;;5010374;28;20110;-70
2024/01/12 04:12:57;;;;;;;3.15;0.90;;;17.60;71.20;;;;;;5010184;28;20077;-69
2024/01/12 04:15:22;;;;;;;3.47;0.75;;;17.60;71.30;;;;;;5010120;28;20029;-69
2024/01/12 04:17:48;;;;;;;4.20;1.00;;;17.60;71.30;;;;;;5009988;28;20452;-69
2024/01/12 04:20:14;;;;;;;3.40;1.15;;;17.60;71.30;;;;;;5010170;28;20022;-69
2024/01/12 04:22:40;;;;;;;2.75;0.98;;;17.60;71.20;;;;;;5011121;28;20053;-69
2024/01/12 04:25:06;;;;;;;2.00;1.00;;;17.60;71.20;;;;;;5011197;28;20038;-69
2024/01/12 04:27:32;;;;;;;1.55;0.60;;;17.60;71.20;;;;;;5011060;28;20025;-70
2024/01/12 04:29:57;;;;;;;0.68;0.60;;;17.60;71.20;;;;;;5012041;28;20505;-70
2024/01/12 04:32:23;;;;;;;1.05;0.70;;;17.60;71.20;;;;;;5014555;28;20038;-69
2024/01/12 04:34:49;;;;;;;1.35;1.10;;;17.60;71.20;;;;;;5014515;28;20022;-69
2024/01/12 04:37:14;;;;;;;1.13;1.02;;;17.60;71.20;;;;;;5014924;28;20014;-69
2024/01/12 04:39:41;;;;;;;0.95;0.60;;;17.60;71.30;;;;;;5014505;28;20360;-69
2024/01/12 04:42:06;;;;;;;1.08;0.70;;;17.60;71.30;;;;;;5014576;28;20037;-68
2024/01/12 04:44:32;;;;;;;0.55;0.50;;;17.60;71.30;;;;;;5014746;28;20458;-68
2024/01/12 04:46:57;;;;;;;1.38;0.82;;;17.50;71.30;;;;;;5014217;28;20514;-68
2024/01/12 04:49:23;;;;;;;4.32;0.90;;;17.50;71.40;;;;;;5014451;28;20030;-69
2024/01/12 04:51:49;;;;;;;0.68;0.60;;;17.60;71.40;;;;;;5013992;28;20034;-68
2024/01/12 04:54:14;;;;;;;0.85;0.75;;;17.60;71.30;;;;;;5014611;28;20022;-68
2024/01/12 04:56:40;;;;;;;0.88;0.70;;;17.60;71.40;;;;;;5014491;28;20439;-68
2024/01/12 04:59:05;;;;;;;0.82;0.60;;;17.50;71.40;;;;;;5013993;28;20062;-68
2024/01/12 05:01:31;;;;;;;1.20;0.63;;;17.60;71.40;;;;;;5014094;28;20056;-67
2024/01/12 05:03:57;;;;;;;1.42;0.90;;;17.50;71.40;;;;;;5014403;28;20568;-68
2024/01/12 05:06:25;;;;;;;2.47;0.70;;;17.50;71.50;;;;;;5014288;28;20030;-68
2024/01/12 05:08:51;;;;;;;0.98;0.70;;;17.60;71.50;;;;;;5013827;28;20091;-67
2024/01/12 05:11:16;;;;;;;1.63;0.70;;;17.50;71.50;;;;;;5013593;28;20041;-67
2024/01/12 05:13:42;;;;;;;0.70;0.68;;;17.50;71.50;;;;;;5014266;28;20030;-67
2024/01/12 05:16:08;;;;;;;1.52;0.80;;;17.50;71.60;;;;;;5013906;28;20026;-67
2024/01/12 05:18:33;;;;;;;1.58;0.80;;;17.60;71.60;;;;;;5014074;28;20114;-69
2024/01/12 05:20:59;;;;;;;1.70;0.73;;;17.50;72.00;;;;;;5012309;28;20029;-68
2024/01/12 05:23:25;;;;;;;2.33;0.63;;;17.50;71.90;;;;;;5013969;28;20034;-67
2024/01/12 05:25:50;;;;;;;1.50;0.77;;;17.50;71.80;;;;;;5013717;28;20033;-68
2024/01/12 05:28:16;;;;;;;3.03;0.70;;;17.50;71.90;;;;;;5013402;28;20411;-67
2024/01/12 05:30:42;;;;;;;0.63;0.50;;;17.60;71.90;;;;;;5011960;28;20037;-67
2024/01/12 05:33:10;;;;;;;1.08;0.68;;;17.50;71.80;;;;;;5013744;28;20030;-67
2024/01/12 05:35:36;;;;;;;0.55;0.55;;;17.50;71.80;;;;;;5013267;28;20034;-68
2024/01/12 05:38:02;;;;;;;0.70;0.70;;;17.50;71.80;;;;;;5013531;28;20033;-68
2024/01/12 05:40:28;;;;;;;4.07;1.00;;;17.50;71.80;;;;;;5013332;28;20667;-68
2024/01/12 05:42:54;;;;;;;3.33;0.98;;;17.50;71.80;;;;;;5013022;28;20030;-67
2024/01/12 05:45:20;;;;;;;0.50;0.50;;;17.50;71.80;;;;;;5013485;28;20034;-68
2024/01/12 05:47:45;;;;;;;2.92;0.90;;;17.50;71.90;;;;;;5013541;28;20057;-68
2024/01/12 05:50:11;;;;;;;0.63;0.50;;;17.50;71.80;;;;;;5013649;28;20080;-68
2024/01/12 05:52:37;;;;;;;0.75;0.50;;;17.50;71.90;;;;;;5013390;28;20034;-68
2024/01/12 05:55:03;;;;;;;0.88;0.70;;;17.50;71.90;;;;;;5013544;28;20022;-68
2024/01/12 05:57:31;;;;;;;1.08;0.47;;;17.50;71.90;;;;;;5014184;28;20018;-68
2024/01/12 05:59:56;;;;;;;0.63;0.45;;;17.50;71.80;;;;;;5011634;28;20032;-68
2024/01/12 06:02:22;;;;;;;1.40;0.47;;;17.50;72.00;;;;;;5015490;28;20097;-68
2024/01/12 06:04:48;;;;;;;0.70;0.50;;;17.50;72.00;;;;;;5017697;28;20161;-67
2024/01/12 06:07:14;;;;;;;1.15;0.52;;;17.50;72.10;;;;;;5016528;28;20026;-68
2024/01/12 06:09:40;;;;;;;2.20;0.40;;;17.50;72.10;;;;;;5019110;28;20021;-68
2024/01/12 06:12:06;;;;;;;0.82;0.60;;;17.50;72.10;;;;;;5021562;28;20033;-68
2024/01/12 06:14:32;;;;;;;0.93;0.30;;;17.50;72.10;;;;;;5024351;28;20022;-68
2024/01/12 06:16:58;;;;;;;0.55;0.38;;;17.50;72.10;;;;;;5007601;28;20049;-69
2024/01/12 06:19:24;;;;;;;0.63;0.40;;;17.50;72.20;;;;;;5019814;28;20091;-68
2024/01/12 06:21:50;;;;;;;1.02;0.60;;;17.50;72.20;;;;;;5017121;28;20057;-68
2024/01/12 06:24:15;;;;;;;1.27;0.70;;;17.50;72.20;;;;;;5018212;28;20025;-68
2024/01/12 06:26:42;;;;;;;1.88;0.68;;;17.50;72.00;;;;;;5012657;28;20030;-67
2024/01/12 06:29:08;;;;;;;2.25;0.98;;;17.50;72.50;;;;;;5012460;28;20033;-67
2024/01/12 06:31:33;;;;;;;10.13;1.40;;;17.50;72.30;;;;;;5012094;28;20033;-66
2024/01/12 06:33:59;;;;;;;2.08;0.80;;;17.50;72.60;;;;;;5012628;28;20018;-66
2024/01/12 06:36:25;;;;;;;18.30;1.58;;;17.50;72.30;;;;;;5011053;28;20038;-66
2024/01/12 06:38:51;;;;;;;4.25;1.00;;;17.50;72.20;;;;;;5012412;28;20546;-66
2024/01/12 06:41:16;;;;;;;4.30;1.20;;;17.60;72.10;;;;;;5012086;28;20045;-66
2024/01/12 06:43:42;;;;;;;5.05;1.40;;;17.60;72.10;;;;;;5012399;28;20372;-64
2024/01/12 06:46:07;;;;;;;5.28;1.40;;;17.60;72.00;;;;;;5012016;28;20026;-65
2024/01/12 06:48:34;;;;;;;16.80;1.92;;;17.60;72.90;;;;;;5012486;28;20091;-65
2024/01/12 06:51:00;;;;;;;19.00;2.40;;;17.60;73.00;;;;;;5010743;28;20044;-65
2024/01/12 06:53:26;;;;;;;12.85;2.10;;;17.70;73.00;;;;;;5010892;28;20403;-65
2024/01/12 06:55:51;;;;;;;12.40;2.15;;;17.70;73.20;;;;;;5011596;28;20025;-65
2024/01/12 06:58:17;;;;;;;9.18;2.20;;;17.70;73.60;;;;;;5011527;28;20097;-65
2024/01/12 07:00:43;;;;;;;11.60;2.10;;;17.70;73.70;;;;;;5011244;28;20141;-65
2024/01/12 07:03:08;;;;;;;7.55;2.00;;;17.70;73.70;;;;;;5011795;28;20026;-65
2024/01/12 07:05:34;;;;;;;4.68;1.77;;;17.70;73.70;;;;;;5011853;28;20501;-65
2024/01/12 07:08:00;;;;;;;6.32;1.45;;;17.70;73.60;;;;;;5012002;28;20390;-66
2024/01/12 07:10:26;;;;;;;11.80;1.70;;;17.70;73.60;;;;;;5011647;28;20479;-65
2024/01/12 07:12:51;;;;;;;4.97;1.73;;;17.70;73.70;;;;;;5011718;28;20100;-65
2024/01/12 07:15:20;;;;;;;7.57;1.88;;;17.70;73.70;;;;;;5010909;28;20026;-66
2024/01/12 07:17:49;;;;;;;12.70;2.33;;;17.70;73.50;;;;;;5010779;28;20419;-66
2024/01/12 07:20:15;;;;;;;7.90;2.35;;;17.80;73.40;;;;;;5009519;28;20628;-64
2024/01/12 07:22:40;;;;;;;13.95;2.38;;;17.80;73.20;;;;;;5010764;28;20041;-64
2024/01/12 07:25:06;;;;;;;23.73;2.95;;;17.80;73.40;;;;;;5011113;28;20029;-64
2024/01/12 07:27:32;;;;;;;9.98;2.17;;;17.80;73.10;;;;;;5011102;28;20022;-64
2024/01/12 07:29:57;;;;;;;5.65;1.65;;;17.80;72.80;;;;;;5010544;28;20018;-64
2024/01/12 07:32:23;;;;;;;6.43;1.33;;;17.80;72.50;;;;;;5010884;28;20036;-64
2024/01/12 07:34:49;;;;;;;5.68;1.50;;;17.70;72.20;;;;;;5011058;28;20168;-64
2024/01/12 07:37:16;;;;;;;8.40;1.42;;;17.80;72.20;;;;;;5011131;28;20068;-64
2024/01/12 07:39:42;;;;;;;3.30;1.40;;;17.80;72.00;;;;;;5011117;28;20113;-64
2024/01/12 07:42:08;;;;;;;8.35;1.85;;;17.70;72.00;;;;;;5000072;28;20034;-64
2024/01/12 07:44:36;;;;;;;4.25;1.35;;;17.70;71.90;;;;;;5010998;28;20033;-64
2024/01/12 07:47:01;;;;;;;4.57;1.08;;;17.70;71.80;;;;;;5008714;28;20033;-64
2024/01/12 07:49:27;;;;;;;6.85;1.55;;;17.70;71.80;;;;;;5010883;28;20029;-64
2024/01/12 07:51:53;;;;;;;6.65;1.65;;;17.70;71.80;;;;;;5010543;28;20034;-64
2024/01/12 07:54:18;;;;;;;2.95;1.30;;;17.70;71.80;;;;;;5011002;28;20026;-64
2024/01/12 07:56:44;;;;;;;2.25;1.15;;;17.70;71.70;;;;;;5010781;28;20475;-64
2024/01/12 07:59:09;;;;;;;4.88;1.40;;;17.70;71.70;;;;;;5010061;28;20427;-64
2024/01/12 08:01:35;;;;;;;3.05;1.30;;;17.70;71.70;;;;;;5009292;28;20037;-64
2024/01/12 08:04:00;;;;;;;2.70;0.88;;;17.70;71.70;;;;;;5009733;28;20033;-63
2024/01/12 08:06:26;;;;;;;3.58;1.10;;;17.70;71.70;;;;;;5013262;28;20487;-63
2024/01/12 08:08:52;;;;;;;3.15;1.05;;;17.70;71.60;;;;;;5013466;28;20026;-64
2024/01/12 08:11:17;;;;;;;2.80;1.17;;;17.70;71.60;;;;;;5013040;28;20258;-63
2024/01/12 08:13:43;;;;;;;3.63;0.93;;;17.70;71.60;;;;;;5013436;28;20042;-64
2024/01/12 08:16:09;;;;;;;1.80;0.95;;;17.70;71.60;;;;;;5013582;28;20072;-64
2024/01/12 08:18:34;;;;;;;3.10;1.35;;;17.70;71.60;;;;;;5013415;28;20491;-64
2024/01/12 08:21:00;;;;;;;1.55;0.65;;;17.70;71.60;;;;;;5013198;28;20463;-64
2024/01/12 08:23:25;;;;;;;2.50;0.82;;;17.70;71.50;;;;;;5013264;28;20022;-63
2024/01/12 08:25:51;;;;;;;2.67;0.75;;;17.70;71.50;;;;;;5013285;28;20050;-63
2024/01/12 08:28:17;;;;;;;3.33;0.90;;;17.70;71.50;;;;;;5013137;28;20175;-63
2024/01/12 08:30:42;;;;;;;1.83;1.00;;;17.70;71.50;;;;;;5010923;28;20509;-64
2024/01/12 08:33:08;;;;;;;1.50;1.00;;;17.70;71.50;;;;;;5013242;28;20072;-64
2024/01/12 08:35:34;;;;;;;3.83;1.20;;;17.70;71.50;;;;;;5013219;28;20372;-63
2024/01/12 08:37:59;;;;;;;1.05;0.75;;;17.70;71.40;;;;;;5013263;28;20438;-64
2024/01/12 08:40:25;;;;;;;1.45;0.50;;;17.60;71.50;;;;;;5012017;28;20021;-64
2024/01/12 08:42:51;;;;;;;1.02;0.65;;;17.70;71.50;;;;;;5013467;28;20053;-63
2024/01/12 08:45:17;;;;;;;2.65;0.90;;;17.70;71.50;;;;;;5013436;28;20022;-64
2024/01/12 08:47:43;;;;;;;4.15;0.98;;;17.70;71.40;;;;;;5013644;28;20026;-63
2024/01/12 08:50:09;;;;;;;0.50;0.50;;;17.70;71.40;;;;;;5013189;28;20022;-64
2024/01/12 08:52:34;;;;;;;2.13;0.60;;;17.60;71.40;;;;;;5111904;22;20502;-69
2024/01/12 08:55:00;;;;;;;1.63;0.73;;;17.60;71.40;;;;;;5051489;28;20383;-69
2024/01/12 08:57:25;;;;;;;2.17;0.90;;;17.70;71.40;;;;;;5052142;28;20136;-69
2024/01/12 08:59:51;;;;;;;3.13;1.00;;;17.70;71.40;;;;;;5052325;28;20482;-69
2024/01/12 09:02:17;;;;;;;1.50;0.90;;;17.60;71.40;;;;;;5052778;28;20104;-69
2024/01/12 09:04:42;;;;;;;8.20;1.02;;;17.70;71.90;;;;;;5052911;28;20170;-69
2024/01/12 09:07:08;;;;;;;2.25;1.00;;;17.70;71.70;;;;;;5051430;28;20032;-69
2024/01/12 09:09:34;;;;;;;6.65;1.15;;;17.70;71.70;;;;;;5052727;28;20032;-69
2024/01/12 09:12:00;;;;;;;1.60;0.80;;;17.70;71.60;;;;;;5052631;28;20025;-70
2024/01/12 09:14:27;;;;;;;4.80;1.48;;;17.70;71.60;;;;;;5052858;28;20017;-71
2024/01/12 09:16:52;;;;;;;9.23;1.80;;;17.70;71.60;;;;;;5051720;28;20540;-70
2024/01/12 09:19:18;;;;;;;5.65;1.88;;;17.70;74.20;;;;;;5052704;28;20029;-69
2024/01/12 09:21:44;;;;;;;7.47;3.25;;;17.70;74.60;;;;;;5052461;28;20025;-69
2024/01/12 09:24:11;;;;;;;7.28;2.55;;;17.80;74.90;;;;;;5052299;28;20029;-68
2024/01/12 09:26:37;;;;;;;6.65;2.03;;;17.80;75.00;;;;;;5051953;28;20029;-69
2024/01/12 09:29:02;;;;;;;4.63;1.60;;;17.80;74.90;;;;;;5051908;28;20088;-69
2024/01/12 09:31:28;;;;;;;6.35;2.13;;;17.90;74.60;;;;;;5051381;28;20036;-69
2024/01/12 09:33:54;;;;;;;8.65;2.13;;;17.80;74.20;;;;;;5051644;28;20024;-68
2024/01/12 09:36:19;;;;;;;7.70;2.05;;;17.80;74.10;;;;;;5051820;28;20043;-68
2024/01/12 09:38:45;;;;;;;9.55;2.10;;;17.90;74.30;;;;;;5051539;28;20101;-68
2024/01/12 09:41:11;;;;;;;5.82;2.10;;;17.90;74.30;;;;;;5051904;28;20025;-68
2024/01/12 09:43:38;;;;;;;8.80;2.33;;;17.90;74.20;;;;;;5051618;28;20051;-69
2024/01/12 09:46:08;;;;;;;3.53;1.60;;;17.90;74.10;;;;;;5051696;28;20856;-69
2024/01/12 09:48:34;;;;;;;6.43;1.40;;;17.90;74.00;;;;;;5051936;28;20409;-70
2024/01/12 09:51:01;;;;;;;6.22;1.80;;;18.00;74.00;;;;;;5051442;28;20113;-69
2024/01/12 09:53:26;;;;;;;4.53;1.92;;;17.90;73.80;;;;;;5051732;28;20029;-69
2024/01/12 09:55:52;;;;;;;6.22;1.60;;;18.00;73.70;;;;;;5051503;28;20017;-70
2024/01/12 09:58:21;;;;;;;7.25;1.50;;;17.90;73.60;;;;;;5051478;28;20025;-69
2024/01/12 10:00:50;;;;;;;2.67;1.00;;;17.90;73.50;;;;;;5051528;28;20117;-70
2024/01/12 10:03:17;;;;;;;4.18;1.40;;;17.90;73.30;;;;;;5051867;28;20028;-69
2024/01/12 10:05:43;;;;;;;7.07;1.83;;;17.90;73.20;;;;;;5051823;28;20053;-70
2024/01/12 10:08:09;;;;;;;6.20;1.67;;;17.80;73.20;;;;;;5050548;28;20029;-69
2024/01/12 10:10:35;;;;;;;6.00;1.58;;;17.90;73.30;;;;;;5051844;28;20032;-69
2024/01/12 10:13:02;;;;;;;8.32;1.80;;;17.90;73.50;;;;;;5052277;28;20101;-68
2024/01/12 10:15:29;;;;;;;5.70;1.50;;;17.90;73.60;;;;;;5053357;28;20112;-69
2024/01/12 10:17:55;;;;;;;6.53;1.15;;;17.90;73.60;;;;;;5054842;28;20082;-68
2024/01/12 10:20:22;;;;;;;4.65;1.25;;;17.90;73.60;;;;;;5064718;28;20020;-69
2024/01/12 10:22:55;;;;;;;7.25;1.58;;;17.90;73.70;;;;;;5063760;28;20020;-69
2024/01/12 10:25:20;;;;;;;6.03;1.30;;;17.90;73.70;;;;;;5067635;28;20029;-69
2024/01/12 10:27:57;;;;;;;7.10;1.33;;;17.90;73.70;;;;;;5069266;28;20059;-70
2024/01/12 10:30:22;;;;;;;11.77;1.38;;;17.90;73.70;;;;;;5069001;28;20029;-69
2024/01/12 10:32:52;;;;;;;11.38;1.38;;;17.90;73.60;;;;;;5057432;28;20450;-68
2024/01/12 10:35:20;;;;;;;4.28;1.42;;;17.90;73.50;;;;;;5050792;28;20041;-68
2024/01/12 10:37:47;;;;;;;6.78;1.50;;;17.80;73.50;;;;;;5045307;28;20032;-68
2024/01/12 10:40:15;;;;;;;6.18;1.17;;;17.80;73.50;;;;;;5045458;28;20024;-69
2024/01/12 10:42:48;;;;;;;1.95;0.90;;;17.80;73.50;;;;;;5048245;28;20029;-69
2024/01/12 10:45:19;;;;;;;2.92;0.80;;;17.80;73.50;;;;;;5050538;28;20020;-69
2024/01/12 10:47:50;;;;;;;2.55;1.00;;;17.80;73.50;;;;;;5051833;28;20044;-68
2024/01/12 10:50:18;;;;;;;2.63;1.00;;;17.80;73.40;;;;;;5050248;28;20028;-70
2024/01/12 10:53:09;;;;;;;8.10;1.38;;;17.80;73.40;;;;;;5050382;28;20044;-69
2024/01/12 10:55:37;;;;;;;2.80;1.00;;;17.80;73.40;;;;;;5052123;28;20069;-70
2024/01/12 10:58:03;;;;;;;3.63;0.77;;;17.80;73.50;;;;;;5051926;28;20027;-69
2024/01/12 11:00:32;;;;;;;5.10;1.67;;;17.80;73.40;;;;;;5051605;28;20556;-69
2024/01/12 11:03:03;;;;;;;4.82;1.10;;;17.70;73.40;;;;;;5051317;28;20440;-68
2024/01/12 11:05:32;;;;;;;3.47;0.93;;;17.70;73.40;;;;;;5050419;28;20494;-70
2024/01/12 11:07:59;;;;;;;2.97;0.98;;;17.70;73.40;;;;;;5051558;28;20059;-69
2024/01/12 11:10:27;;;;;;;2.38;0.68;;;17.70;73.30;;;;;;5050878;28;20029;-70
2024/01/12 11:12:53;;;;;;;4.65;1.00;;;17.70;73.30;;;;;;5051484;28;20036;-69
2024/01/12 11:15:19;;;;;;;1.92;0.80;;;17.70;73.40;;;;;;5051665;28;20021;-69
2024/01/12 11:17:45;;;;;;;1.00;0.45;;;17.70;73.40;;;;;;5048084;28;20033;-69
2024/01/12 11:20:18;;;;;;;2.90;1.00;;;17.70;73.40;;;;;;5061193;28;20021;-67
2024/01/12 11:22:46;;;;;;;3.17;0.95;;;17.70;73.40;;;;;;5053298;28;20048;-68
2024/01/12 11:25:14;;;;;;;2.75;0.80;;;17.70;73.40;;;;;;5049650;28;20031;-69
2024/01/12 11:27:42;;;;;;;7.00;1.33;;;17.70;73.30;;;;;;5038839;28;20025;-68
2024/01/12 11:30:10;;;;;;;3.30;0.73;;;17.70;73.40;;;;;;5043276;28;20386;-69
2024/01/12 11:32:37;;;;;;;2.90;1.23;;;17.70;73.40;;;;;;5046011;28;20049;-69
2024/01/12 11:35:14;;;;;;;2.53;0.70;;;17.70;73.30;;;;;;5047724;28;20079;-69
2024/01/12 11:37:42;;;;;;;3.55;1.00;;;17.70;73.30;;;;;;5040338;28;20061;-69
2024/01/12 11:40:10;;;;;;;2.83;0.90;;;17.70;73.60;;;;;;5048137;28;20097;-69
2024/01/12 11:42:37;;;;;;;1.60;0.77;;;17.70;73.60;;;;;;5057115;28;20409;-69
2024/01/12 11:45:13;;;;;;;3.40;0.80;;;17.70;73.50;;;;;;5054955;28;20468;-68
2024/01/12 11:47:45;;;;;;;1.05;0.55;;;17.70;73.50;;;;;;5057074;28;20082;-69
2024/01/12 11:50:14;;;;;;;2.25;0.52;;;17.70;73.40;;;;;;5056344;28;20486;-68
2024/01/12 11:52:40;;;;;;;1.67;1.10;;;17.70;73.30;;;;;;5053889;28;20034;-71
2024/01/12 11:55:07;;;;;;;2.08;0.90;;;17.70;73.30;;;;;;5055074;28;20401;-69
2024/01/12 11:57:36;;;;;;;1.20;0.60;;;17.70;73.30;;;;;;5057235;28;20032;-69
2024/01/12 12:00:03;;;;;;;1.73;0.50;;;17.70;73.40;;;;;;5056007;28;20032;-69
2024/01/12 12:02:29;;;;;;;3.22;1.20;;;17.70;73.40;;;;;;5057111;28;20104;-69
2024/01/12 12:04:55;;;;;;;1.85;0.70;;;17.70;73.40;;;;;;5057118;28;20223;-70
2024/01/12 12:07:25;;;;;;;4.55;0.85;;;17.70;73.50;;;;;;5056841;28;20021;-69
2024/01/12 12:09:52;;;;;;;2.78;1.58;;;17.70;73.50;;;;;;5052150;28;20028;-70
2024/01/12 12:12:18;;;;;;;9.13;1.50;;;17.70;76.00;;;;;;5056262;28;20025;-70
2024/01/12 12:14:56;;;;;;;6.57;1.27;;;17.70;75.90;;;;;;5056634;28;20171;-70
2024/01/12 12:17:25;;;;;;;4.22;1.42;;;17.80;76.40;;;;;;5056837;28;20024;-70
2024/01/12 12:19:51;;;;;;;3.95;0.90;;;17.80;76.40;;;;;;5055342;28;20387;-70
2024/01/12 12:22:16;;;;;;;7.80;1.67;;;17.80;76.50;;;;;;5056526;28;20378;-72
2024/01/12 12:24:43;;;;;;;79.38;6.93;;;17.80;77.00;;;;;;5056486;28;20039;-72
2024/01/12 12:27:09;;;;;;;9.63;4.88;;;17.80;76.60;;;;;;5056844;28;20032;-73
2024/01/12 12:29:35;;;;;;;10.25;5.93;;;16.90;66.10;;;;;;5056526;28;20429;-73
2024/01/12 12:32:01;;;;;;;22.63;5.68;;;16.20;61.40;;;;;;5055004;28;20025;-71
2024/01/12 12:34:29;;;;;;;8.00;5.45;;;15.60;62.70;;;;;;5055741;28;20028;-70
2024/01/12 12:36:55;;;;;;;7.00;5.45;;;15.00;56.90;;;;;;5055305;28;20029;-70
2024/01/12 12:39:21;;;;;;;19.52;6.22;;;14.50;59.50;;;;;;5056367;28;20017;-72